Time;durP1;ratioP1;P1;durP2;ratioP2;P2;SDS_P1;SDS_P2;PMS_P1;PMS_P2;Temp;Humidity;BMP_temperature;BMP_pressure;BME280_temperature;BME280_humidity;BME280_pressure;Samples;Min_cycle;Max_cycle;Signal;HPM_P1;HPM_P2
2021/06/13 00:00:22;;;;;;;1.15;1.15;;;;;;;;;;5010681;28;20050;-45
2021/06/13 00:02:49;;;;;;;1.98;0.90;;;;;;;;;;5012235;28;20046;-44
2021/06/13 00:05:16;;;;;;;1.42;1.00;;;;;;;;;;5011446;28;20092;-46
2021/06/13 00:07:43;;;;;;;1.20;1.20;;;;;;;;;;5011935;28;20068;-44
2021/06/13 00:10:10;;;;;;;2.78;1.00;;;;;;;;;;5010671;28;20048;-45
2021/06/13 00:12:37;;;;;;;2.92;1.20;;;;;;;;;;5011425;28;20068;-45
2021/06/13 00:15:06;;;;;;;2.38;0.90;;;;;;;;;;5009931;28;20609;-44
2021/06/13 00:17:33;;;;;;;1.10;1.10;;;;;;;;;;5008853;28;20618;-44
2021/06/13 00:20:00;;;;;;;0.90;0.90;;;;;;;;;;5007767;28;20096;-46
2021/06/13 00:22:27;;;;;;;1.38;1.00;;;;;;;;;;5011187;28;20378;-43
2021/06/13 00:24:54;;;;;;;0.90;0.90;;;;;;;;;;5009254;28;20403;-45
2021/06/13 00:27:20;;;;;;;1.00;1.00;;;;;;;;;;5022875;28;20100;-44
2021/06/13 00:29:47;;;;;;;1.00;1.00;;;;;;;;;;5011684;28;20030;-45
2021/06/13 00:32:14;;;;;;;1.15;1.15;;;;;;;;;;5011181;28;20042;-45
2021/06/13 00:34:41;;;;;;;1.17;1.17;;;;;;;;;;5011732;28;20035;-48
2021/06/13 00:37:07;;;;;;;1.95;1.00;;;;;;;;;;5009500;28;20037;-45
2021/06/13 00:39:34;;;;;;;1.27;1.27;;;;;;;;;;5010998;28;20042;-43
2021/06/13 00:42:01;;;;;;;1.00;1.00;;;;;;;;;;5010828;28;20080;-43
2021/06/13 00:44:28;;;;;;;0.90;0.90;;;;;;;;;;4997349;28;20042;-44
2021/06/13 00:46:55;;;;;;;1.02;0.90;;;;;;;;;;5005813;28;20113;-44
2021/06/13 00:49:22;;;;;;;1.13;0.90;;;;;;;;;;5008881;28;20171;-44
2021/06/13 00:51:48;;;;;;;3.42;1.10;;;;;;;;;;5011825;28;20042;-44
2021/06/13 00:54:16;;;;;;;3.38;1.55;;;;;;;;;;5009915;28;20085;-46
2021/06/13 00:56:42;;;;;;;1.20;1.20;;;;;;;;;;5010840;28;20134;-44
2021/06/13 00:59:09;;;;;;;1.88;1.00;;;;;;;;;;5003292;28;20054;-45
2021/06/13 01:01:36;;;;;;;1.60;1.20;;;;;;;;;;5004804;28;20446;-43
2021/06/13 01:04:03;;;;;;;2.10;1.20;;;;;;;;;;5000752;28;20387;-44
2021/06/13 01:06:56;;;;;;;4.03;1.27;;;;;;;;;;5006846;28;20053;-44
2021/06/13 01:09:24;;;;;;;1.10;1.10;;;;;;;;;;4976343;28;20083;-44
2021/06/13 01:11:54;;;;;;;1.17;1.08;;;;;;;;;;5008366;28;20038;-44
2021/06/13 01:14:40;;;;;;;0.98;0.98;;;;;;;;;;5008045;28;20050;-44
2021/06/13 01:17:11;;;;;;;1.15;1.10;;;;;;;;;;5002047;28;20100;-47
2021/06/13 01:19:45;;;;;;;1.30;1.20;;;;;;;;;;5010910;28;20476;-43
2021/06/13 01:22:23;;;;;;;1.45;1.33;;;;;;;;;;5009548;28;20050;-44
2021/06/13 01:25:09;;;;;;;1.10;1.10;;;;;;;;;;4992350;28;20155;-44
2021/06/13 01:27:42;;;;;;;1.33;1.33;;;;;;;;;;5011439;28;20041;-46
2021/06/13 01:30:09;;;;;;;1.50;1.10;;;;;;;;;;5007637;28;20065;-45
2021/06/13 01:32:35;;;;;;;1.30;1.25;;;;;;;;;;5010272;28;20050;-45
2021/06/13 01:35:05;;;;;;;1.40;1.10;;;;;;;;;;5008521;28;20113;-43
2021/06/13 01:37:34;;;;;;;1.10;1.00;;;;;;;;;;5010194;28;20022;-43
2021/06/13 01:40:06;;;;;;;3.53;1.30;;;;;;;;;;5008339;28;20407;-43
2021/06/13 01:42:33;;;;;;;1.25;1.10;;;;;;;;;;5009258;28;20092;-45
2021/06/13 01:45:01;;;;;;;1.30;1.30;;;;;;;;;;5008821;28;20042;-45
2021/06/13 01:47:30;;;;;;;1.15;1.15;;;;;;;;;;5010806;28;20066;-44
2021/06/13 01:49:57;;;;;;;1.95;1.25;;;;;;;;;;5011052;28;20042;-48
2021/06/13 01:52:26;;;;;;;1.30;1.30;;;;;;;;;;5009941;28;20108;-44
2021/06/13 01:54:54;;;;;;;2.75;1.20;;;;;;;;;;5007680;28;20374;-43
2021/06/13 01:57:22;;;;;;;1.30;1.30;;;;;;;;;;5008553;28;20502;-43
2021/06/13 01:59:48;;;;;;;1.30;1.20;;;;;;;;;;5011174;28;20459;-43
2021/06/13 02:02:16;;;;;;;1.30;1.20;;;;;;;;;;5004444;28;20041;-47
2021/06/13 02:04:44;;;;;;;1.10;1.10;;;;;;;;;;5004512;28;20108;-44
2021/06/13 02:07:11;;;;;;;1.70;1.40;;;;;;;;;;5008503;28;20104;-44
2021/06/13 02:09:39;;;;;;;1.55;1.55;;;;;;;;;;5008695;28;20117;-43
2021/06/13 02:12:06;;;;;;;2.05;1.10;;;;;;;;;;5008165;28;20125;-45
2021/06/13 02:14:34;;;;;;;1.10;1.10;;;;;;;;;;5009016;28;20117;-47
2021/06/13 02:17:02;;;;;;;1.20;1.20;;;;;;;;;;5002036;28;20458;-45
2021/06/13 02:19:29;;;;;;;3.10;1.27;;;;;;;;;;5004213;28;20372;-47
2021/06/13 02:21:57;;;;;;;2.28;1.00;;;;;;;;;;5007622;28;20100;-45
2021/06/13 02:24:35;;;;;;;1.27;1.13;;;;;;;;;;5010890;28;20481;-43
2021/06/13 02:27:06;;;;;;;1.67;1.20;;;;;;;;;;5008677;28;20038;-49
2021/06/13 02:29:34;;;;;;;1.20;1.20;;;;;;;;;;5008215;28;20034;-46
2021/06/13 02:32:02;;;;;;;1.58;1.10;;;;;;;;;;5005985;28;20132;-47
2021/06/13 02:34:30;;;;;;;1.25;1.25;;;;;;;;;;5008126;28;20397;-46
2021/06/13 02:37:00;;;;;;;1.33;1.23;;;;;;;;;;5007602;28;20077;-44
2021/06/13 02:39:27;;;;;;;1.88;1.40;;;;;;;;;;5007827;28;20073;-44
2021/06/13 02:41:54;;;;;;;1.38;1.38;;;;;;;;;;5008535;28;20033;-44
2021/06/13 02:44:20;;;;;;;1.67;1.50;;;;;;;;;;5000009;28;20073;-44
2021/06/13 02:46:47;;;;;;;1.25;1.25;;;;;;;;;;5004327;28;20077;-44
2021/06/13 02:49:14;;;;;;;1.50;1.50;;;;;;;;;;5013820;28;20048;-44
2021/06/13 02:51:59;;;;;;;1.75;1.30;;;;;;;;;;5005798;28;20070;-44
2021/06/13 02:54:27;;;;;;;1.20;1.20;;;;;;;;;;5002054;28;20668;-44
2021/06/13 02:57:01;;;;;;;1.75;1.63;;;;;;;;;;5014670;28;20065;-44
2021/06/13 02:59:27;;;;;;;1.48;1.48;;;;;;;;;;5011208;28;20042;-43
2021/06/13 03:01:55;;;;;;;1.10;1.10;;;;;;;;;;5003848;28;20053;-44
2021/06/13 03:04:23;;;;;;;1.20;1.20;;;;;;;;;;5013651;28;20092;-45
2021/06/13 03:06:53;;;;;;;1.65;1.65;;;;;;;;;;5012268;28;20045;-46
2021/06/13 03:09:21;;;;;;;1.20;1.20;;;;;;;;;;5013037;28;20458;-43
2021/06/13 03:11:49;;;;;;;3.40;1.38;;;;;;;;;;5008804;28;20085;-45
2021/06/13 03:14:15;;;;;;;1.77;1.13;;;;;;;;;;5011625;28;20063;-44
2021/06/13 03:16:43;;;;;;;2.13;1.45;;;;;;;;;;5023990;28;20049;-47
2021/06/13 03:19:11;;;;;;;1.95;1.15;;;;;;;;;;5007629;28;20084;-45
2021/06/13 03:21:39;;;;;;;1.50;1.50;;;;;;;;;;5000784;28;20078;-46
2021/06/13 03:24:06;;;;;;;2.58;1.30;;;;;;;;;;5006547;28;20043;-45
2021/06/13 03:26:35;;;;;;;1.35;1.35;;;;;;;;;;5007246;28;20104;-44
2021/06/13 03:29:02;;;;;;;1.30;1.30;;;;;;;;;;5011577;28;20422;-45
2021/06/13 03:31:29;;;;;;;2.85;1.20;;;;;;;;;;5011953;28;20033;-45
2021/06/13 03:33:56;;;;;;;5.03;2.65;;;;;;;;;;5004375;28;20042;-45
2021/06/13 03:36:24;;;;;;;2.08;1.20;;;;;;;;;;5012607;28;20066;-44
2021/06/13 03:38:51;;;;;;;3.90;1.20;;;;;;;;;;5011371;28;20073;-44
2021/06/13 03:41:19;;;;;;;1.60;1.20;;;;;;;;;;5011245;28;20049;-45
2021/06/13 03:43:47;;;;;;;1.95;1.52;;;;;;;;;;5009845;28;20033;-46
2021/06/13 03:46:14;;;;;;;1.25;1.25;;;;;;;;;;5017598;28;20054;-42
2021/06/13 03:48:43;;;;;;;1.30;1.30;;;;;;;;;;5020034;28;20581;-43
2021/06/13 03:51:14;;;;;;;1.73;1.48;;;;;;;;;;5007404;28;20097;-43
2021/06/13 03:53:47;;;;;;;1.40;1.30;;;;;;;;;;5009421;28;20041;-47
2021/06/13 03:56:16;;;;;;;1.60;1.60;;;;;;;;;;5008838;28;20121;-46
2021/06/13 03:58:43;;;;;;;1.63;1.52;;;;;;;;;;5010038;28;20572;-46
2021/06/13 04:01:11;;;;;;;1.23;1.23;;;;;;;;;;5013450;28;20077;-44
2021/06/13 04:03:41;;;;;;;1.98;1.77;;;;;;;;;;5009713;28;20041;-45
2021/06/13 04:06:08;;;;;;;2.03;1.75;;;;;;;;;;5003715;28;20038;-44
2021/06/13 04:08:38;;;;;;;1.98;1.67;;;;;;;;;;5011169;28;20073;-44
2021/06/13 04:11:06;;;;;;;2.13;1.67;;;;;;;;;;5009497;28;20026;-46
2021/06/13 04:13:33;;;;;;;1.98;1.73;;;;;;;;;;5011553;28;20042;-43
2021/06/13 04:16:05;;;;;;;1.42;1.42;;;;;;;;;;5009174;28;20139;-45
2021/06/13 04:18:32;;;;;;;1.95;1.40;;;;;;;;;;4998662;28;20498;-45
2021/06/13 04:20:59;;;;;;;3.85;1.80;;;;;;;;;;5010704;28;20426;-44
2021/06/13 04:23:27;;;;;;;1.40;1.40;;;;;;;;;;5010748;28;20038;-44
2021/06/13 04:25:55;;;;;;;1.45;1.45;;;;;;;;;;5011174;28;20045;-45
2021/06/13 04:28:23;;;;;;;1.48;1.48;;;;;;;;;;5006053;28;20074;-46
2021/06/13 04:31:06;;;;;;;3.58;1.42;;;;;;;;;;5010042;28;20076;-46
2021/06/13 04:33:33;;;;;;;1.50;1.48;;;;;;;;;;5010476;28;20378;-45
2021/06/13 04:36:00;;;;;;;1.52;1.33;;;;;;;;;;5009515;28;20487;-44
2021/06/13 04:38:28;;;;;;;1.40;1.30;;;;;;;;;;5010393;28;20409;-46
2021/06/13 04:40:54;;;;;;;1.25;1.25;;;;;;;;;;5011210;28;20367;-45
2021/06/13 04:43:21;;;;;;;1.73;1.63;;;;;;;;;;5008588;28;20058;-44
2021/06/13 04:45:48;;;;;;;3.38;1.10;;;;;;;;;;5012813;28;20627;-48
2021/06/13 04:48:17;;;;;;;1.42;1.38;;;;;;;;;;5008952;28;20131;-45
2021/06/13 04:50:44;;;;;;;2.10;1.90;;;;;;;;;;5002052;28;20050;-44
2021/06/13 04:53:32;;;;;;;2.70;1.20;;;;;;;;;;5007358;28;20046;-45
2021/06/13 04:56:03;;;;;;;1.45;1.33;;;;;;;;;;5003481;28;20046;-44
2021/06/13 04:58:30;;;;;;;1.20;1.20;;;;;;;;;;5008882;28;20042;-46
2021/06/13 05:00:56;;;;;;;1.42;1.42;;;;;;;;;;5010505;28;20524;-46
2021/06/13 05:03:23;;;;;;;1.50;1.50;;;;;;;;;;5006327;28;20040;-44
2021/06/13 05:05:50;;;;;;;1.38;1.38;;;;;;;;;;5004917;28;20109;-44
2021/06/13 05:08:17;;;;;;;1.35;1.35;;;;;;;;;;5009907;28;20569;-45
2021/06/13 05:10:44;;;;;;;2.03;1.55;;;;;;;;;;5009496;28;20049;-44
2021/06/13 05:13:17;;;;;;;1.30;1.30;;;;;;;;;;5003802;28;20105;-45
2021/06/13 05:15:44;;;;;;;;;;;;;;;;;;5001470;28;20045;-47
2021/06/13 05:18:11;;;;;;;2.53;1.75;;;;;;;;;;5010809;28;19929;-43
2021/06/13 05:20:39;;;;;;;1.52;1.42;;;;;;;;;;5009575;28;20037;-44
2021/06/13 05:23:06;;;;;;;1.45;1.40;;;;;;;;;;5009469;28;20135;-44
2021/06/13 05:25:34;;;;;;;1.80;1.70;;;;;;;;;;5011066;28;20060;-45
2021/06/13 05:28:01;;;;;;;1.63;1.40;;;;;;;;;;5010132;28;20120;-43
2021/06/13 05:30:29;;;;;;;2.53;1.40;;;;;;;;;;5010474;28;20061;-44
2021/06/13 05:32:56;;;;;;;1.40;1.40;;;;;;;;;;5007933;28;20038;-44
2021/06/13 05:35:24;;;;;;;1.60;1.50;;;;;;;;;;5008745;28;20053;-45
2021/06/13 05:37:51;;;;;;;2.15;1.50;;;;;;;;;;5007190;28;20042;-45
2021/06/13 05:40:18;;;;;;;1.80;1.80;;;;;;;;;;5009212;28;20307;-45
2021/06/13 05:42:45;;;;;;;3.63;1.55;;;;;;;;;;5006272;28;20050;-46
2021/06/13 05:45:13;;;;;;;1.73;1.73;;;;;;;;;;5008379;28;20044;-44
2021/06/13 05:47:40;;;;;;;1.85;1.50;;;;;;;;;;5010049;28;20045;-45
2021/06/13 05:50:08;;;;;;;1.45;1.33;;;;;;;;;;4998788;28;20061;-44
2021/06/13 05:52:35;;;;;;;1.40;1.25;;;;;;;;;;5009280;28;20046;-43
2021/06/13 05:55:03;;;;;;;2.60;1.20;;;;;;;;;;5006131;28;20066;-44
2021/06/13 05:57:31;;;;;;;2.25;1.35;;;;;;;;;;5009375;28;20398;-43
2021/06/13 05:59:59;;;;;;;1.20;1.10;;;;;;;;;;5010039;28;20048;-43
2021/06/13 06:02:28;;;;;;;4.10;1.10;;;;;;;;;;5010130;28;20049;-44
2021/06/13 06:04:55;;;;;;;1.17;1.10;;;;;;;;;;5009741;28;20592;-44
2021/06/13 06:07:21;;;;;;;1.35;1.35;;;;;;;;;;5016245;28;20050;-47
2021/06/13 06:09:48;;;;;;;1.00;1.00;;;;;;;;;;5007684;28;20061;-43
2021/06/13 06:12:15;;;;;;;1.30;1.20;;;;;;;;;;5007718;28;20034;-44
2021/06/13 06:14:42;;;;;;;1.55;1.45;;;;;;;;;;5025037;28;20489;-44
2021/06/13 06:17:09;;;;;;;1.10;1.10;;;;;;;;;;5009808;28;20080;-43
2021/06/13 06:19:37;;;;;;;3.05;1.55;;;;;;;;;;5007427;28;20038;-43
2021/06/13 06:22:04;;;;;;;2.85;1.38;;;;;;;;;;5001821;28;20046;-45
2021/06/13 06:24:32;;;;;;;2.88;1.30;;;;;;;;;;5007955;28;20551;-44
2021/06/13 06:26:59;;;;;;;1.02;1.02;;;;;;;;;;5013821;28;20045;-45
2021/06/13 06:29:26;;;;;;;1.42;1.00;;;;;;;;;;5009137;28;20038;-44
2021/06/13 06:31:53;;;;;;;1.77;1.40;;;;;;;;;;4998827;28;20057;-44
2021/06/13 06:34:19;;;;;;;4.75;1.77;;;;;;;;;;5014060;28;20699;-48
2021/06/13 06:36:47;;;;;;;33.97;7.78;;;;;;;;;;5011923;28;20038;-46
2021/06/13 06:39:14;;;;;;;193.55;42.28;;;;;;;;;;5013829;28;20076;-44
2021/06/13 06:41:41;;;;;;;66.15;15.25;;;;;;;;;;5009224;28;20046;-47
2021/06/13 06:44:08;;;;;;;6.40;1.73;;;;;;;;;;4999699;28;20065;-45
2021/06/13 06:46:35;;;;;;;20.83;6.03;;;;;;;;;;5014116;28;20452;-45
2021/06/13 06:49:03;;;;;;;1.42;1.40;;;;;;;;;;5007346;28;20053;-45
2021/06/13 06:51:30;;;;;;;1.17;1.17;;;;;;;;;;5000629;28;20121;-46
2021/06/13 06:53:57;;;;;;;63.50;15.32;;;;;;;;;;5006392;28;20061;-45
2021/06/13 06:56:25;;;;;;;2.17;1.52;;;;;;;;;;5007127;28;20046;-44
2021/06/13 06:58:52;;;;;;;1.27;1.17;;;;;;;;;;5011225;28;20118;-44
2021/06/13 07:01:19;;;;;;;1.08;1.08;;;;;;;;;;5010141;28;20121;-44
2021/06/13 07:03:46;;;;;;;1.08;1.08;;;;;;;;;;5014914;28;20088;-45
2021/06/13 07:06:12;;;;;;;1.00;1.00;;;;;;;;;;5009335;28;20042;-44
2021/06/13 07:08:39;;;;;;;0.90;0.90;;;;;;;;;;5011138;28;20459;-46
2021/06/13 07:11:06;;;;;;;1.35;1.00;;;;;;;;;;5007544;28;20133;-45
2021/06/13 07:13:34;;;;;;;1.00;1.00;;;;;;;;;;5010704;28;20041;-47
2021/06/13 07:16:00;;;;;;;1.00;1.00;;;;;;;;;;5012490;28;20089;-46
2021/06/13 07:18:27;;;;;;;1.00;1.00;;;;;;;;;;5012926;28;20053;-44
2021/06/13 07:20:55;;;;;;;2.05;1.05;;;;;;;;;;5018822;28;20049;-45
2021/06/13 07:23:22;;;;;;;1.10;1.10;;;;;;;;;;5015936;28;20073;-44
2021/06/13 07:25:48;;;;;;;1.00;0.90;;;;;;;;;;5009285;28;20038;-45
2021/06/13 07:28:16;;;;;;;0.90;0.90;;;;;;;;;;5010554;28;20033;-44
2021/06/13 07:30:43;;;;;;;4.53;0.90;;;;;;;;;;5009746;28;20541;-46
2021/06/13 07:33:09;;;;;;;1.23;1.00;;;;;;;;;;5009897;28;20068;-45
2021/06/13 07:35:36;;;;;;;0.90;0.90;;;;;;;;;;5009633;28;20053;-46
2021/06/13 07:38:04;;;;;;;1.40;0.80;;;;;;;;;;5002710;28;20050;-44
2021/06/13 07:40:32;;;;;;;0.80;0.80;;;;;;;;;;5008529;28;20556;-43
2021/06/13 07:42:58;;;;;;;0.80;0.80;;;;;;;;;;5011904;28;20100;-45
2021/06/13 07:45:26;;;;;;;0.85;0.85;;;;;;;;;;5006958;28;20041;-45
2021/06/13 07:47:54;;;;;;;0.90;0.90;;;;;;;;;;5017565;28;20041;-47
2021/06/13 07:50:21;;;;;;;0.80;0.80;;;;;;;;;;5009116;28;20042;-45
2021/06/13 07:52:49;;;;;;;4.03;0.82;;;;;;;;;;5002301;28;20506;-43
2021/06/13 07:55:16;;;;;;;0.90;0.90;;;;;;;;;;5012454;28;20044;-45
2021/06/13 07:57:43;;;;;;;1.45;0.88;;;;;;;;;;5009182;28;20124;-46
2021/06/13 08:00:11;;;;;;;0.90;0.90;;;;;;;;;;5012323;28;20766;-48
2021/06/13 08:02:47;;;;;;;25.75;3.72;;;;;;;;;;5008322;28;20050;-45
2021/06/13 08:05:17;;;;;;;7.97;1.00;;;;;;;;;;5007332;28;20113;-48
2021/06/13 08:07:43;;;;;;;1.10;0.85;;;;;;;;;;5010905;28;20050;-48
2021/06/13 08:10:10;;;;;;;1.80;0.80;;;;;;;;;;5007684;28;20761;-47
2021/06/13 08:12:38;;;;;;;1.25;0.82;;;;;;;;;;5024492;28;20121;-46
2021/06/13 08:15:06;;;;;;;0.90;0.90;;;;;;;;;;5010437;28;20037;-47
2021/06/13 08:17:33;;;;;;;1.00;0.90;;;;;;;;;;5007416;28;20029;-49
2021/06/13 08:19:59;;;;;;;0.80;0.80;;;;;;;;;;5009402;28;20046;-47
2021/06/13 08:22:27;;;;;;;0.80;0.80;;;;;;;;;;5010324;28;20061;-49
2021/06/13 08:24:55;;;;;;;0.98;0.70;;;;;;;;;;5011795;28;20100;-45
2021/06/13 08:27:22;;;;;;;0.80;0.75;;;;;;;;;;5009257;28;20479;-50
2021/06/13 08:29:49;;;;;;;0.88;0.77;;;;;;;;;;5003002;28;20438;-49
2021/06/13 08:32:15;;;;;;;1.50;0.80;;;;;;;;;;5012007;28;20631;-46
2021/06/13 08:34:42;;;;;;;2.78;0.80;;;;;;;;;;5008276;28;20088;-47
2021/06/13 08:37:09;;;;;;;0.70;0.70;;;;;;;;;;5012310;28;20038;-47
2021/06/13 08:39:36;;;;;;;0.70;0.70;;;;;;;;;;5007627;28;20088;-47
2021/06/13 08:42:03;;;;;;;0.70;0.70;;;;;;;;;;5007588;28;20623;-46
2021/06/13 08:44:30;;;;;;;0.93;0.93;;;;;;;;;;5002690;28;20096;-47
2021/06/13 08:46:58;;;;;;;0.70;0.70;;;;;;;;;;5004594;28;20073;-48
2021/06/13 08:49:26;;;;;;;0.70;0.70;;;;;;;;;;5006048;28;20041;-52
2021/06/13 08:51:53;;;;;;;2.55;0.70;;;;;;;;;;5007002;28;20065;-50
2021/06/13 08:54:20;;;;;;;0.88;0.70;;;;;;;;;;5005193;28;20072;-50
2021/06/13 08:56:47;;;;;;;1.70;0.70;;;;;;;;;;4996326;28;20426;-49
2021/06/13 08:59:14;;;;;;;0.60;0.60;;;;;;;;;;5006053;28;20121;-49
2021/06/13 09:01:41;;;;;;;0.70;0.70;;;;;;;;;;5002470;28;20841;-49
2021/06/13 09:04:08;;;;;;;0.95;0.90;;;;;;;;;;5011948;28;20054;-48
2021/06/13 09:06:35;;;;;;;0.65;0.65;;;;;;;;;;5006972;28;20117;-47
2021/06/13 09:09:14;;;;;;;1.25;0.68;;;;;;;;;;5011188;28;20048;-48
2021/06/13 09:11:55;;;;;;;0.73;0.73;;;;;;;;;;5009256;28;20486;-48
2021/06/13 09:14:22;;;;;;;0.60;0.60;;;;;;;;;;5008468;28;20129;-46
2021/06/13 09:16:49;;;;;;;0.70;0.70;;;;;;;;;;4997431;28;20050;-49
2021/06/13 09:19:16;;;;;;;1.33;0.70;;;;;;;;;;5005010;28;20121;-46
2021/06/13 09:21:42;;;;;;;0.90;0.90;;;;;;;;;;5008333;28;20464;-51
2021/06/13 09:24:23;;;;;;;0.70;0.70;;;;;;;;;;5011204;28;20103;-47
2021/06/13 09:26:51;;;;;;;1.27;0.60;;;;;;;;;;5009085;28;20442;-49
2021/06/13 09:29:18;;;;;;;0.70;0.70;;;;;;;;;;5006065;28;20042;-49
2021/06/13 09:31:45;;;;;;;0.82;0.70;;;;;;;;;;5006452;28;20034;-51
2021/06/13 09:34:13;;;;;;;0.70;0.70;;;;;;;;;;5008988;28;20037;-49
2021/06/13 09:36:40;;;;;;;0.63;0.63;;;;;;;;;;5010351;28;20398;-47
2021/06/13 09:39:11;;;;;;;3.13;0.65;;;;;;;;;;5005987;28;20090;-49
2021/06/13 09:41:39;;;;;;;1.63;0.70;;;;;;;;;;5009417;28;20050;-48
2021/06/13 09:44:07;;;;;;;0.80;0.70;;;;;;;;;;5008629;28;20041;-50
2021/06/13 09:46:38;;;;;;;1.25;0.70;;;;;;;;;;5007694;28;20140;-51
2021/06/13 09:49:07;;;;;;;0.75;0.70;;;;;;;;;;5011268;28;20541;-51
2021/06/13 09:51:40;;;;;;;0.60;0.60;;;;;;;;;;5008292;28;20086;-49
2021/06/13 09:54:07;;;;;;;2.17;0.70;;;;;;;;;;5008009;28;20554;-50
2021/06/13 09:56:41;;;;;;;3.22;0.70;;;;;;;;;;5006937;28;20133;-49
2021/06/13 09:59:15;;;;;;;0.68;0.68;;;;;;;;;;5005297;28;20077;-50
2021/06/13 10:01:41;;;;;;;0.70;0.70;;;;;;;;;;5027104;28;20075;-51
2021/06/13 10:04:24;;;;;;;0.70;0.70;;;;;;;;;;5006973;28;20084;-50
2021/06/13 10:06:52;;;;;;;0.60;0.60;;;;;;;;;;5002210;28;20100;-51
2021/06/13 10:09:20;;;;;;;0.70;0.70;;;;;;;;;;5011364;28;20056;-52
2021/06/13 10:11:47;;;;;;;0.90;0.60;;;;;;;;;;5009126;28;20037;-47
2021/06/13 10:14:18;;;;;;;1.20;0.60;;;;;;;;;;5004240;28;20073;-51
2021/06/13 10:16:47;;;;;;;5.00;0.80;;;;;;;;;;5003552;28;20054;-55
2021/06/13 10:19:15;;;;;;;0.60;0.60;;;;;;;;;;5006287;28;20430;-53
2021/06/13 10:22:11;;;;;;;0.60;0.60;;;;;;;;;;5003017;28;20096;-53
2021/06/13 10:24:39;;;;;;;0.60;0.60;;;;;;;;;;4943891;28;20058;-54
2021/06/13 10:27:07;;;;;;;0.60;0.60;;;;;;;;;;4943707;28;20523;-54
2021/06/13 10:29:36;;;;;;;1.15;0.60;;;;;;;;;;4942624;28;20078;-54
2021/06/13 10:32:04;;;;;;;0.70;0.70;;;;;;;;;;4943003;28;20509;-55
2021/06/13 10:34:32;;;;;;;1.10;0.60;;;;;;;;;;4951259;28;20047;-55
2021/06/13 10:37:00;;;;;;;0.68;0.68;;;;;;;;;;4942962;28;20079;-54
2021/06/13 10:39:29;;;;;;;0.70;0.70;;;;;;;;;;4942144;28;20443;-54
2021/06/13 10:41:56;;;;;;;1.67;0.70;;;;;;;;;;4945124;28;20058;-54
2021/06/13 10:44:25;;;;;;;1.83;0.70;;;;;;;;;;4941213;28;20044;-54
2021/06/13 10:46:56;;;;;;;1.25;0.70;;;;;;;;;;4942705;28;20687;-54
2021/06/13 10:49:28;;;;;;;0.60;0.60;;;;;;;;;;4941775;28;20122;-55
2021/06/13 10:52:05;;;;;;;2.25;0.73;;;;;;;;;;4944756;28;20524;-54
2021/06/13 10:54:35;;;;;;;0.70;0.70;;;;;;;;;;4945105;28;20062;-54
2021/06/13 10:57:04;;;;;;;0.70;0.70;;;;;;;;;;4944250;28;20449;-55
2021/06/13 10:59:32;;;;;;;0.60;0.60;;;;;;;;;;4934750;28;20535;-55
2021/06/13 11:02:10;;;;;;;1.00;1.00;;;;;;;;;;4991237;28;20101;-54
2021/06/13 11:04:40;;;;;;;0.60;0.60;;;;;;;;;;4999980;28;20099;-54
2021/06/13 11:07:06;;;;;;;0.75;0.75;;;;;;;;;;5005438;28;20517;-55
2021/06/13 11:09:33;;;;;;;0.70;0.70;;;;;;;;;;5001344;28;20069;-54
2021/06/13 11:12:00;;;;;;;0.60;0.60;;;;;;;;;;5008869;28;20033;-55
2021/06/13 11:14:27;;;;;;;0.70;0.70;;;;;;;;;;5006481;28;20042;-54
2021/06/13 11:16:55;;;;;;;1.02;0.70;;;;;;;;;;5007468;28;20826;-53
2021/06/13 11:19:26;;;;;;;0.98;0.98;;;;;;;;;;5006074;28;20049;-53
2021/06/13 11:22:11;;;;;;;2.47;0.60;;;;;;;;;;5009452;28;20149;-55
2021/06/13 11:24:48;;;;;;;0.60;0.60;;;;;;;;;;5008257;28;20120;-55
2021/06/13 11:27:15;;;;;;;0.85;0.85;;;;;;;;;;5012645;28;20113;-55
2021/06/13 11:29:55;;;;;;;1.23;0.65;;;;;;;;;;5009496;28;20049;-55
2021/06/13 11:32:40;;;;;;;0.60;0.60;;;;;;;;;;5007640;28;20524;-55
2021/06/13 11:35:26;;;;;;;0.68;0.68;;;;;;;;;;5008163;28;20038;-55
2021/06/13 11:38:08;;;;;;;1.98;0.65;;;;;;;;;;5006404;28;20129;-54
2021/06/13 11:40:48;;;;;;;1.60;0.70;;;;;;;;;;5007858;28;20157;-55
2021/06/13 11:43:17;;;;;;;0.60;0.60;;;;;;;;;;5008708;28;20113;-55
2021/06/13 11:45:54;;;;;;;1.08;0.70;;;;;;;;;;5008583;28;20038;-55
2021/06/13 11:48:22;;;;;;;1.52;0.70;;;;;;;;;;5008299;28;20545;-55
2021/06/13 11:51:08;;;;;;;0.70;0.70;;;;;;;;;;5003941;28;20038;-54
2021/06/13 11:53:54;;;;;;;4.82;0.70;;;;;;;;;;5002454;28;20072;-54
2021/06/13 11:56:36;;;;;;;1.40;0.60;;;;;;;;;;5004148;28;20121;-55
2021/06/13 11:59:05;;;;;;;0.60;0.60;;;;;;;;;;5004740;28;20057;-53
2021/06/13 12:01:34;;;;;;;0.60;0.60;;;;;;;;;;5001268;28;20046;-55
2021/06/13 12:04:10;;;;;;;1.40;0.60;;;;;;;;;;5007941;28;20046;-55
2021/06/13 12:06:37;;;;;;;0.60;0.60;;;;;;;;;;5004601;28;20069;-55
2021/06/13 12:09:06;;;;;;;0.70;0.70;;;;;;;;;;5002291;28;20499;-55
2021/06/13 12:11:33;;;;;;;1.35;0.60;;;;;;;;;;5000144;28;20064;-55
2021/06/13 12:14:19;;;;;;;0.60;0.60;;;;;;;;;;5002512;28;20042;-55
2021/06/13 12:16:46;;;;;;;0.60;0.60;;;;;;;;;;5011770;28;20065;-54
2021/06/13 12:19:14;;;;;;;0.60;0.60;;;;;;;;;;5001441;28;20067;-55
2021/06/13 12:21:41;;;;;;;0.60;0.60;;;;;;;;;;5006411;28;20050;-53
2021/06/13 12:24:14;;;;;;;0.60;0.60;;;;;;;;;;4998917;28;21663;-54
2021/06/13 12:29:27;;;;;;;0.80;0.70;;;;;;;;;;5009363;28;20034;-54
2021/06/13 12:31:54;;;;;;;0.60;0.60;;;;;;;;;;5003659;28;20046;-55
2021/06/13 12:34:21;;;;;;;0.63;0.63;;;;;;;;;;4998465;28;20065;-55
2021/06/13 12:36:52;;;;;;;1.48;0.60;;;;;;;;;;5002920;28;20080;-55
2021/06/13 12:39:29;;;;;;;0.57;0.57;;;;;;;;;;5002780;28;20528;-55
2021/06/13 12:42:12;;;;;;;0.60;0.60;;;;;;;;;;5000984;28;20113;-54
2021/06/13 12:44:39;;;;;;;0.93;0.60;;;;;;;;;;5006447;28;20057;-55
2021/06/13 12:47:11;;;;;;;0.77;0.60;;;;;;;;;;5004067;28;20042;-55
2021/06/13 12:49:42;;;;;;;0.67;0.67;;;;;;;;;;5008756;28;20532;-54
2021/06/13 12:52:16;;;;;;;0.68;0.60;;;;;;;;;;5005147;28;20330;-54
2021/06/13 12:54:44;;;;;;;0.60;0.60;;;;;;;;;;5001831;28;20529;-54
2021/06/13 12:57:11;;;;;;;1.20;0.70;;;;;;;;;;5002852;28;20125;-55
2021/06/13 12:59:38;;;;;;;0.85;0.85;;;;;;;;;;4995263;28;20133;-54
2021/06/13 13:02:09;;;;;;;1.25;0.60;;;;;;;;;;5004139;28;20494;-55
2021/06/13 13:04:55;;;;;;;0.60;0.60;;;;;;;;;;5003954;28;20124;-54
2021/06/13 13:07:28;;;;;;;0.60;0.60;;;;;;;;;;5006712;28;20116;-54
2021/06/13 13:10:03;;;;;;;0.50;0.50;;;;;;;;;;5011389;28;20486;-54
2021/06/13 13:12:29;;;;;;;1.98;0.60;;;;;;;;;;5005338;28;20553;-55
2021/06/13 13:15:26;;;;;;;0.68;0.60;;;;;;;;;;5010341;28;20356;-55
2021/06/13 13:17:54;;;;;;;0.73;0.50;;;;;;;;;;4939192;29;20493;-55
2021/06/13 13:20:23;;;;;;;0.60;0.60;;;;;;;;;;4937548;28;21681;-55
2021/06/13 13:22:51;;;;;;;0.60;0.60;;;;;;;;;;4940761;28;20150;-55
2021/06/13 13:25:19;;;;;;;1.88;0.60;;;;;;;;;;4940527;28;20043;-54
2021/06/13 13:27:46;;;;;;;0.50;0.50;;;;;;;;;;4935998;28;20051;-55
2021/06/13 13:30:28;;;;;;;0.65;0.65;;;;;;;;;;4931626;28;20391;-55
2021/06/13 13:32:57;;;;;;;0.60;0.60;;;;;;;;;;4938787;28;20054;-55
2021/06/13 13:35:31;;;;;;;0.70;0.70;;;;;;;;;;4935065;28;20071;-55
2021/06/13 13:37:58;;;;;;;1.33;1.00;;;;;;;;;;4936068;29;20110;-55
2021/06/13 13:40:25;;;;;;;1.10;1.00;;;;;;;;;;4935868;28;20055;-55
2021/06/13 13:43:03;;;;;;;1.58;0.70;;;;;;;;;;4936404;28;20055;-54
2021/06/13 13:45:30;;;;;;;1.05;0.70;;;;;;;;;;4935949;28;20110;-55
2021/06/13 13:48:15;;;;;;;0.98;0.70;;;;;;;;;;4942204;28;20146;-55
2021/06/13 13:50:46;;;;;;;0.88;0.70;;;;;;;;;;4938118;28;20150;-54
2021/06/13 13:53:15;;;;;;;0.60;0.60;;;;;;;;;;4940629;28;20079;-55
2021/06/13 13:55:49;;;;;;;0.60;0.60;;;;;;;;;;5002303;28;20789;-54
2021/06/13 13:58:16;;;;;;;1.50;0.60;;;;;;;;;;5005710;28;20045;-55
2021/06/13 14:00:43;;;;;;;2.33;0.63;;;;;;;;;;5002636;28;20073;-56
2021/06/13 14:03:10;;;;;;;1.95;0.60;;;;;;;;;;5002652;28;20045;-55
2021/06/13 14:05:37;;;;;;;0.60;0.60;;;;;;;;;;5000987;28;20046;-55
2021/06/13 14:08:05;;;;;;;0.50;0.50;;;;;;;;;;5009495;28;20100;-55
2021/06/13 14:10:31;;;;;;;0.55;0.55;;;;;;;;;;5004220;28;20121;-55
2021/06/13 14:12:58;;;;;;;0.60;0.60;;;;;;;;;;5012563;28;20417;-54
2021/06/13 14:15:25;;;;;;;0.60;0.60;;;;;;;;;;5001861;28;20117;-55
2021/06/13 14:17:52;;;;;;;2.47;0.60;;;;;;;;;;5001312;28;20037;-53
2021/06/13 14:20:19;;;;;;;1.25;0.60;;;;;;;;;;5005162;28;20050;-55
2021/06/13 14:22:46;;;;;;;0.65;0.60;;;;;;;;;;5000397;28;20076;-55
2021/06/13 14:25:13;;;;;;;0.80;0.80;;;;;;;;;;5002125;28;20046;-55
2021/06/13 14:27:39;;;;;;;0.60;0.60;;;;;;;;;;5006316;28;20370;-54
2021/06/13 14:30:07;;;;;;;0.50;0.50;;;;;;;;;;5016296;28;20065;-54
2021/06/13 14:32:34;;;;;;;0.60;0.60;;;;;;;;;;5006410;28;20060;-54
2021/06/13 14:35:01;;;;;;;0.60;0.60;;;;;;;;;;5003728;28;20041;-55
2021/06/13 14:37:28;;;;;;;2.47;0.70;;;;;;;;;;5000285;28;20133;-55
2021/06/13 14:39:56;;;;;;;0.70;0.70;;;;;;;;;;5002505;28;20046;-55
2021/06/13 14:42:23;;;;;;;0.70;0.60;;;;;;;;;;5002458;28;20066;-54
2021/06/13 14:44:50;;;;;;;0.60;0.60;;;;;;;;;;5008304;28;20092;-55
2021/06/13 14:47:17;;;;;;;3.80;0.65;;;;;;;;;;5002876;28;20463;-55
2021/06/13 14:49:44;;;;;;;0.50;0.50;;;;;;;;;;5007600;28;20049;-55
2021/06/13 14:52:11;;;;;;;0.60;0.60;;;;;;;;;;5009471;28;20052;-55
2021/06/13 14:54:38;;;;;;;1.70;0.70;;;;;;;;;;5001749;28;20034;-54
2021/06/13 14:57:07;;;;;;;0.73;0.60;;;;;;;;;;5015055;28;20029;-54